sensor_id;sensor_type;location;lat;lon;timestamp;P1;durP1;ratioP1;P2;durP2;ratioP2
54993;SDS011;40891;47.242;8.648;2023-03-17T00:00:46;5.00;;;2.07;;
54993;SDS011;40891;47.242;8.648;2023-03-17T00:03:15;3.33;;;1.77;;
54993;SDS011;40891;47.242;8.648;2023-03-17T00:05:46;4.60;;;2.10;;
54993;SDS011;40891;47.242;8.648;2023-03-17T00:08:15;5.20;;;2.10;;
54993;SDS011;40891;47.242;8.648;2023-03-17T00:10:45;4.13;;;2.20;;
54993;SDS011;40891;47.242;8.648;2023-03-17T00:13:11;3.40;;;2.07;;
54993;SDS011;40891;47.242;8.648;2023-03-17T00:15:37;3.63;;;2.30;;
54993;SDS011;40891;47.242;8.648;2023-03-17T00:18:02;5.27;;;2.03;;
54993;SDS011;40891;47.242;8.648;2023-03-17T00:20:29;3.53;;;2.10;;
54993;SDS011;40891;47.242;8.648;2023-03-17T00:23:00;3.50;;;2.00;;
54993;SDS011;40891;47.242;8.648;2023-03-17T00:25:30;5.77;;;2.10;;
54993;SDS011;40891;47.242;8.648;2023-03-17T00:27:58;2.93;;;1.93;;
54993;SDS011;40891;47.242;8.648;2023-03-17T00:30:24;3.27;;;2.07;;
54993;SDS011;40891;47.242;8.648;2023-03-17T00:32:51;4.33;;;1.70;;
54993;SDS011;40891;47.242;8.648;2023-03-17T00:35:21;3.37;;;2.10;;
54993;SDS011;40891;47.242;8.648;2023-03-17T00:37:56;3.20;;;1.97;;
54993;SDS011;40891;47.242;8.648;2023-03-17T00:40:23;5.90;;;2.13;;
54993;SDS011;40891;47.242;8.648;2023-03-17T00:42:51;3.43;;;2.17;;
54993;SDS011;40891;47.242;8.648;2023-03-17T00:45:20;4.00;;;2.17;;
54993;SDS011;40891;47.242;8.648;2023-03-17T00:47:50;5.77;;;2.80;;
54993;SDS011;40891;47.242;8.648;2023-03-17T00:50:21;6.17;;;2.03;;
54993;SDS011;40891;47.242;8.648;2023-03-17T00:52:50;5.67;;;2.43;;
54993;SDS011;40891;47.242;8.648;2023-03-17T00:55:17;5.67;;;2.30;;
54993;SDS011;40891;47.242;8.648;2023-03-17T00:57:45;2.63;;;1.93;;
54993;SDS011;40891;47.242;8.648;2023-03-17T01:00:16;4.80;;;1.90;;
54993;SDS011;40891;47.242;8.648;2023-03-17T01:02:48;6.10;;;2.20;;
54993;SDS011;40891;47.242;8.648;2023-03-17T01:05:14;3.80;;;2.17;;
54993;SDS011;40891;47.242;8.648;2023-03-17T01:07:40;4.63;;;2.13;;
54993;SDS011;40891;47.242;8.648;2023-03-17T01:10:15;4.73;;;2.30;;
54993;SDS011;40891;47.242;8.648;2023-03-17T01:12:43;3.50;;;1.90;;
54993;SDS011;40891;47.242;8.648;2023-03-17T01:15:09;4.27;;;2.30;;
54993;SDS011;40891;47.242;8.648;2023-03-17T01:17:37;3.80;;;1.83;;
54993;SDS011;40891;47.242;8.648;2023-03-17T01:20:03;4.03;;;2.20;;
54993;SDS011;40891;47.242;8.648;2023-03-17T01:22:30;3.33;;;2.03;;
54993;SDS011;40891;47.242;8.648;2023-03-17T01:24:56;4.27;;;2.20;;
54993;SDS011;40891;47.242;8.648;2023-03-17T01:27:22;3.57;;;2.07;;
54993;SDS011;40891;47.242;8.648;2023-03-17T01:29:51;2.43;;;1.80;;
54993;SDS011;40891;47.242;8.648;2023-03-17T01:32:17;4.30;;;2.17;;
54993;SDS011;40891;47.242;8.648;2023-03-17T01:34:42;2.93;;;1.90;;
54993;SDS011;40891;47.242;8.648;2023-03-17T01:37:07;3.17;;;2.10;;
54993;SDS011;40891;47.242;8.648;2023-03-17T01:39:33;3.97;;;2.20;;
54993;SDS011;40891;47.242;8.648;2023-03-17T01:41:59;2.93;;;2.07;;
54993;SDS011;40891;47.242;8.648;2023-03-17T01:44:25;3.93;;;2.00;;
54993;SDS011;40891;47.242;8.648;2023-03-17T01:46:51;3.50;;;2.20;;
54993;SDS011;40891;47.242;8.648;2023-03-17T01:49:25;4.87;;;1.97;;
54993;SDS011;40891;47.242;8.648;2023-03-17T01:51:56;3.73;;;2.30;;
54993;SDS011;40891;47.242;8.648;2023-03-17T01:54:25;4.83;;;2.40;;
54993;SDS011;40891;47.242;8.648;2023-03-17T01:57:19;5.00;;;2.30;;
54993;SDS011;40891;47.242;8.648;2023-03-17T01:59:53;3.60;;;1.90;;
54993;SDS011;40891;47.242;8.648;2023-03-17T02:02:23;3.20;;;2.10;;
54993;SDS011;40891;47.242;8.648;2023-03-17T02:04:52;4.70;;;2.53;;
54993;SDS011;40891;47.242;8.648;2023-03-17T02:07:19;4.60;;;2.27;;
54993;SDS011;40891;47.242;8.648;2023-03-17T02:09:46;3.57;;;1.97;;
54993;SDS011;40891;47.242;8.648;2023-03-17T02:12:12;5.60;;;2.40;;
54993;SDS011;40891;47.242;8.648;2023-03-17T02:14:39;5.13;;;2.50;;
54993;SDS011;40891;47.242;8.648;2023-03-17T02:17:05;4.70;;;2.60;;
54993;SDS011;40891;47.242;8.648;2023-03-17T02:19:31;9.23;;;2.60;;
54993;SDS011;40891;47.242;8.648;2023-03-17T02:21:58;4.67;;;2.70;;
54993;SDS011;40891;47.242;8.648;2023-03-17T02:26:53;7.57;;;2.70;;
54993;SDS011;40891;47.242;8.648;2023-03-17T02:29:21;5.17;;;2.50;;
54993;SDS011;40891;47.242;8.648;2023-03-17T02:31:47;4.20;;;2.70;;
54993;SDS011;40891;47.242;8.648;2023-03-17T02:34:12;5.20;;;2.70;;
54993;SDS011;40891;47.242;8.648;2023-03-17T02:36:38;7.00;;;2.87;;
54993;SDS011;40891;47.242;8.648;2023-03-17T02:39:03;4.23;;;2.67;;
54993;SDS011;40891;47.242;8.648;2023-03-17T02:41:29;5.50;;;2.90;;
54993;SDS011;40891;47.242;8.648;2023-03-17T02:43:54;4.83;;;3.00;;
54993;SDS011;40891;47.242;8.648;2023-03-17T02:46:20;7.00;;;2.83;;
54993;SDS011;40891;47.242;8.648;2023-03-17T02:48:46;5.47;;;2.73;;
54993;SDS011;40891;47.242;8.648;2023-03-17T02:51:12;7.30;;;3.00;;
54993;SDS011;40891;47.242;8.648;2023-03-17T02:53:38;5.47;;;3.47;;
54993;SDS011;40891;47.242;8.648;2023-03-17T02:56:03;11.77;;;2.93;;
54993;SDS011;40891;47.242;8.648;2023-03-17T02:58:29;3.87;;;2.60;;
54993;SDS011;40891;47.242;8.648;2023-03-17T03:00:54;4.47;;;2.83;;
54993;SDS011;40891;47.242;8.648;2023-03-17T03:03:20;8.43;;;3.53;;
54993;SDS011;40891;47.242;8.648;2023-03-17T03:05:46;5.83;;;2.97;;
54993;SDS011;40891;47.242;8.648;2023-03-17T03:08:11;5.37;;;3.17;;
54993;SDS011;40891;47.242;8.648;2023-03-17T03:10:37;5.50;;;3.00;;
54993;SDS011;40891;47.242;8.648;2023-03-17T03:13:02;5.03;;;2.87;;
54993;SDS011;40891;47.242;8.648;2023-03-17T03:15:27;4.83;;;2.77;;
54993;SDS011;40891;47.242;8.648;2023-03-17T03:17:53;5.77;;;3.23;;
54993;SDS011;40891;47.242;8.648;2023-03-17T03:20:18;3.90;;;2.80;;
54993;SDS011;40891;47.242;8.648;2023-03-17T03:22:44;5.90;;;3.07;;
54993;SDS011;40891;47.242;8.648;2023-03-17T03:25:10;6.83;;;3.03;;
54993;SDS011;40891;47.242;8.648;2023-03-17T03:27:36;5.10;;;3.53;;
54993;SDS011;40891;47.242;8.648;2023-03-17T03:30:02;4.40;;;3.03;;
54993;SDS011;40891;47.242;8.648;2023-03-17T03:32:28;4.90;;;3.13;;
54993;SDS011;40891;47.242;8.648;2023-03-17T03:34:53;4.93;;;3.10;;
54993;SDS011;40891;47.242;8.648;2023-03-17T03:37:18;5.57;;;3.10;;
54993;SDS011;40891;47.242;8.648;2023-03-17T03:39:45;7.03;;;3.27;;
54993;SDS011;40891;47.242;8.648;2023-03-17T03:42:11;7.30;;;3.07;;
54993;SDS011;40891;47.242;8.648;2023-03-17T03:44:37;3.57;;;2.63;;
54993;SDS011;40891;47.242;8.648;2023-03-17T03:47:02;3.17;;;2.40;;
54993;SDS011;40891;47.242;8.648;2023-03-17T03:49:27;5.13;;;2.80;;
54993;SDS011;40891;47.242;8.648;2023-03-17T03:51:52;5.97;;;3.40;;
54993;SDS011;40891;47.242;8.648;2023-03-17T03:54:18;4.23;;;2.50;;
54993;SDS011;40891;47.242;8.648;2023-03-17T03:56:43;4.30;;;2.73;;
54993;SDS011;40891;47.242;8.648;2023-03-17T03:59:09;3.87;;;2.50;;
54993;SDS011;40891;47.242;8.648;2023-03-17T04:01:34;4.27;;;2.60;;
54993;SDS011;40891;47.242;8.648;2023-03-17T04:04:00;4.70;;;3.00;;
54993;SDS011;40891;47.242;8.648;2023-03-17T04:06:25;8.23;;;2.60;;
54993;SDS011;40891;47.242;8.648;2023-03-17T04:08:51;4.17;;;2.57;;
54993;SDS011;40891;47.242;8.648;2023-03-17T04:11:16;6.13;;;2.40;;
54993;SDS011;40891;47.242;8.648;2023-03-17T04:13:42;5.70;;;2.70;;
54993;SDS011;40891;47.242;8.648;2023-03-17T04:16:07;3.73;;;2.60;;
54993;SDS011;40891;47.242;8.648;2023-03-17T04:18:33;5.10;;;3.00;;
54993;SDS011;40891;47.242;8.648;2023-03-17T04:20:59;9.43;;;2.83;;
54993;SDS011;40891;47.242;8.648;2023-03-17T04:23:25;5.57;;;2.90;;
54993;SDS011;40891;47.242;8.648;2023-03-17T04:25:51;4.73;;;2.60;;
54993;SDS011;40891;47.242;8.648;2023-03-17T04:28:17;8.77;;;2.97;;
54993;SDS011;40891;47.242;8.648;2023-03-17T04:30:43;5.90;;;3.00;;
54993;SDS011;40891;47.242;8.648;2023-03-17T04:33:08;4.03;;;2.67;;
54993;SDS011;40891;47.242;8.648;2023-03-17T04:35:34;5.87;;;2.93;;
54993;SDS011;40891;47.242;8.648;2023-03-17T04:37:59;5.37;;;2.67;;
54993;SDS011;40891;47.242;8.648;2023-03-17T04:40:25;5.60;;;2.53;;
54993;SDS011;40891;47.242;8.648;2023-03-17T04:42:50;8.60;;;3.23;;
54993;SDS011;40891;47.242;8.648;2023-03-17T04:45:16;7.40;;;3.10;;
54993;SDS011;40891;47.242;8.648;2023-03-17T04:47:41;3.93;;;2.50;;
54993;SDS011;40891;47.242;8.648;2023-03-17T04:50:07;4.07;;;2.77;;
54993;SDS011;40891;47.242;8.648;2023-03-17T04:52:34;5.37;;;2.80;;
54993;SDS011;40891;47.242;8.648;2023-03-17T04:55:00;5.60;;;2.83;;
54993;SDS011;40891;47.242;8.648;2023-03-17T04:57:26;11.23;;;3.10;;
54993;SDS011;40891;47.242;8.648;2023-03-17T04:59:51;3.17;;;2.40;;
54993;SDS011;40891;47.242;8.648;2023-03-17T05:02:16;5.33;;;3.03;;
54993;SDS011;40891;47.242;8.648;2023-03-17T05:04:42;7.17;;;2.87;;
54993;SDS011;40891;47.242;8.648;2023-03-17T05:07:09;5.30;;;2.93;;
54993;SDS011;40891;47.242;8.648;2023-03-17T05:09:34;4.33;;;3.10;;
54993;SDS011;40891;47.242;8.648;2023-03-17T05:12:00;7.57;;;2.90;;
54993;SDS011;40891;47.242;8.648;2023-03-17T05:14:25;6.57;;;2.97;;
54993;SDS011;40891;47.242;8.648;2023-03-17T05:16:51;5.77;;;3.33;;
54993;SDS011;40891;47.242;8.648;2023-03-17T05:19:16;5.47;;;2.77;;
54993;SDS011;40891;47.242;8.648;2023-03-17T05:21:42;4.83;;;2.90;;
54993;SDS011;40891;47.242;8.648;2023-03-17T05:24:08;4.30;;;2.90;;
54993;SDS011;40891;47.242;8.648;2023-03-17T05:26:33;4.57;;;2.83;;
54993;SDS011;40891;47.242;8.648;2023-03-17T05:28:59;7.60;;;3.30;;
54993;SDS011;40891;47.242;8.648;2023-03-17T05:31:24;6.90;;;3.20;;
54993;SDS011;40891;47.242;8.648;2023-03-17T05:33:50;9.73;;;3.13;;
54993;SDS011;40891;47.242;8.648;2023-03-17T05:36:16;6.53;;;3.00;;
54993;SDS011;40891;47.242;8.648;2023-03-17T05:38:41;6.03;;;2.90;;
54993;SDS011;40891;47.242;8.648;2023-03-17T05:41:07;6.97;;;2.87;;
54993;SDS011;40891;47.242;8.648;2023-03-17T05:43:32;5.27;;;2.87;;
54993;SDS011;40891;47.242;8.648;2023-03-17T05:45:58;8.67;;;2.90;;
54993;SDS011;40891;47.242;8.648;2023-03-17T05:48:23;6.87;;;2.93;;
54993;SDS011;40891;47.242;8.648;2023-03-17T05:50:49;3.97;;;2.23;;
54993;SDS011;40891;47.242;8.648;2023-03-17T05:53:14;7.40;;;2.90;;
54993;SDS011;40891;47.242;8.648;2023-03-17T05:55:40;4.13;;;2.50;;
54993;SDS011;40891;47.242;8.648;2023-03-17T05:58:06;4.13;;;2.17;;
54993;SDS011;40891;47.242;8.648;2023-03-17T06:00:33;4.07;;;2.43;;
54993;SDS011;40891;47.242;8.648;2023-03-17T06:02:59;3.80;;;2.13;;
54993;SDS011;40891;47.242;8.648;2023-03-17T06:05:25;2.83;;;1.70;;
54993;SDS011;40891;47.242;8.648;2023-03-17T06:07:51;2.70;;;1.90;;
54993;SDS011;40891;47.242;8.648;2023-03-17T06:10:16;8.47;;;2.07;;
54993;SDS011;40891;47.242;8.648;2023-03-17T06:12:42;2.87;;;1.80;;
54993;SDS011;40891;47.242;8.648;2023-03-17T06:15:07;3.90;;;2.40;;
54993;SDS011;40891;47.242;8.648;2023-03-17T06:17:34;4.77;;;2.23;;
54993;SDS011;40891;47.242;8.648;2023-03-17T06:19:59;8.30;;;2.23;;
54993;SDS011;40891;47.242;8.648;2023-03-17T06:22:25;3.83;;;2.00;;
54993;SDS011;40891;47.242;8.648;2023-03-17T06:24:51;6.33;;;2.23;;
54993;SDS011;40891;47.242;8.648;2023-03-17T06:27:17;4.60;;;2.73;;
54993;SDS011;40891;47.242;8.648;2023-03-17T06:29:43;2.97;;;1.97;;
54993;SDS011;40891;47.242;8.648;2023-03-17T06:32:08;3.63;;;1.93;;
54993;SDS011;40891;47.242;8.648;2023-03-17T06:34:34;5.10;;;2.00;;
54993;SDS011;40891;47.242;8.648;2023-03-17T06:36:59;2.93;;;2.03;;
54993;SDS011;40891;47.242;8.648;2023-03-17T06:39:24;4.13;;;1.93;;
54993;SDS011;40891;47.242;8.648;2023-03-17T06:41:50;4.17;;;1.83;;
54993;SDS011;40891;47.242;8.648;2023-03-17T06:44:15;5.07;;;2.40;;
54993;SDS011;40891;47.242;8.648;2023-03-17T06:46:41;2.77;;;2.03;;
54993;SDS011;40891;47.242;8.648;2023-03-17T06:49:07;3.40;;;2.30;;
54993;SDS011;40891;47.242;8.648;2023-03-17T06:51:32;6.87;;;3.10;;
54993;SDS011;40891;47.242;8.648;2023-03-17T06:54:01;4.93;;;2.33;;
54993;SDS011;40891;47.242;8.648;2023-03-17T06:56:27;5.83;;;2.77;;
54993;SDS011;40891;47.242;8.648;2023-03-17T06:58:52;6.13;;;3.10;;
54993;SDS011;40891;47.242;8.648;2023-03-17T07:01:18;4.20;;;2.60;;
54993;SDS011;40891;47.242;8.648;2023-03-17T07:03:43;5.10;;;2.60;;
54993;SDS011;40891;47.242;8.648;2023-03-17T07:06:09;3.33;;;2.43;;
54993;SDS011;40891;47.242;8.648;2023-03-17T07:08:34;5.07;;;2.67;;
54993;SDS011;40891;47.242;8.648;2023-03-17T07:11:00;5.33;;;2.70;;
54993;SDS011;40891;47.242;8.648;2023-03-17T07:13:28;5.27;;;2.40;;
54993;SDS011;40891;47.242;8.648;2023-03-17T07:15:53;5.47;;;3.10;;
54993;SDS011;40891;47.242;8.648;2023-03-17T07:18:19;8.67;;;3.60;;
54993;SDS011;40891;47.242;8.648;2023-03-17T07:20:44;6.10;;;3.00;;
54993;SDS011;40891;47.242;8.648;2023-03-17T07:23:14;6.90;;;3.07;;
54993;SDS011;40891;47.242;8.648;2023-03-17T07:25:44;9.47;;;3.63;;
54993;SDS011;40891;47.242;8.648;2023-03-17T07:28:11;4.83;;;3.10;;
54993;SDS011;40891;47.242;8.648;2023-03-17T07:30:36;10.27;;;3.10;;
54993;SDS011;40891;47.242;8.648;2023-03-17T07:33:02;8.40;;;3.70;;
54993;SDS011;40891;47.242;8.648;2023-03-17T07:35:28;6.90;;;3.70;;
54993;SDS011;40891;47.242;8.648;2023-03-17T07:37:55;6.83;;;2.90;;
54993;SDS011;40891;47.242;8.648;2023-03-17T07:40:20;5.07;;;2.97;;
54993;SDS011;40891;47.242;8.648;2023-03-17T07:42:46;5.73;;;3.40;;
54993;SDS011;40891;47.242;8.648;2023-03-17T07:45:11;9.57;;;3.77;;
54993;SDS011;40891;47.242;8.648;2023-03-17T07:47:37;6.70;;;3.30;;
54993;SDS011;40891;47.242;8.648;2023-03-17T07:50:03;5.80;;;3.30;;
54993;SDS011;40891;47.242;8.648;2023-03-17T07:52:29;6.27;;;3.60;;
54993;SDS011;40891;47.242;8.648;2023-03-17T07:54:55;7.00;;;3.47;;
54993;SDS011;40891;47.242;8.648;2023-03-17T07:57:22;4.40;;;3.40;;
54993;SDS011;40891;47.242;8.648;2023-03-17T07:59:48;5.20;;;3.47;;
54993;SDS011;40891;47.242;8.648;2023-03-17T08:02:15;4.93;;;3.57;;
54993;SDS011;40891;47.242;8.648;2023-03-17T08:04:41;6.07;;;3.63;;
54993;SDS011;40891;47.242;8.648;2023-03-17T08:07:08;7.63;;;3.50;;
54993;SDS011;40891;47.242;8.648;2023-03-17T08:09:34;6.70;;;3.47;;
54993;SDS011;40891;47.242;8.648;2023-03-17T08:12:00;5.50;;;3.67;;
54993;SDS011;40891;47.242;8.648;2023-03-17T08:14:25;5.33;;;3.47;;
54993;SDS011;40891;47.242;8.648;2023-03-17T08:16:51;5.27;;;3.47;;
54993;SDS011;40891;47.242;8.648;2023-03-17T08:19:18;4.90;;;3.33;;
54993;SDS011;40891;47.242;8.648;2023-03-17T08:21:44;5.33;;;3.00;;
54993;SDS011;40891;47.242;8.648;2023-03-17T08:24:09;5.17;;;3.03;;
54993;SDS011;40891;47.242;8.648;2023-03-17T08:26:35;5.53;;;3.47;;
54993;SDS011;40891;47.242;8.648;2023-03-17T08:29:01;6.83;;;3.17;;
54993;SDS011;40891;47.242;8.648;2023-03-17T08:31:28;5.43;;;3.13;;
54993;SDS011;40891;47.242;8.648;2023-03-17T08:33:54;5.07;;;3.07;;
54993;SDS011;40891;47.242;8.648;2023-03-17T08:36:23;3.77;;;3.13;;
54993;SDS011;40891;47.242;8.648;2023-03-17T08:38:50;6.87;;;3.00;;
54993;SDS011;40891;47.242;8.648;2023-03-17T08:41:16;5.23;;;3.20;;
54993;SDS011;40891;47.242;8.648;2023-03-17T08:43:44;4.00;;;3.10;;
54993;SDS011;40891;47.242;8.648;2023-03-17T08:46:14;4.00;;;3.30;;
54993;SDS011;40891;47.242;8.648;2023-03-17T08:48:43;5.00;;;3.07;;
54993;SDS011;40891;47.242;8.648;2023-03-17T08:51:10;4.40;;;2.90;;
54993;SDS011;40891;47.242;8.648;2023-03-17T08:53:36;7.87;;;3.10;;
54993;SDS011;40891;47.242;8.648;2023-03-17T08:56:02;7.30;;;3.10;;
54993;SDS011;40891;47.242;8.648;2023-03-17T08:58:29;5.90;;;3.03;;
54993;SDS011;40891;47.242;8.648;2023-03-17T09:00:57;5.67;;;2.77;;
54993;SDS011;40891;47.242;8.648;2023-03-17T09:03:23;4.63;;;2.40;;
54993;SDS011;40891;47.242;8.648;2023-03-17T09:05:49;5.27;;;2.33;;
54993;SDS011;40891;47.242;8.648;2023-03-17T09:08:15;4.00;;;2.50;;
54993;SDS011;40891;47.242;8.648;2023-03-17T09:10:41;4.67;;;2.73;;
54993;SDS011;40891;47.242;8.648;2023-03-17T09:13:06;3.53;;;1.97;;
54993;SDS011;40891;47.242;8.648;2023-03-17T09:15:33;3.00;;;1.80;;
54993;SDS011;40891;47.242;8.648;2023-03-17T09:17:59;4.20;;;2.10;;
54993;SDS011;40891;47.242;8.648;2023-03-17T09:20:25;4.65;;;1.85;;
54993;SDS011;40891;47.242;8.648;2023-03-17T09:22:51;3.10;;;1.88;;
54993;SDS011;40891;47.242;8.648;2023-03-17T09:25:16;2.40;;;1.42;;
54993;SDS011;40891;47.242;8.648;2023-03-17T09:27:42;3.72;;;1.60;;
54993;SDS011;40891;47.242;8.648;2023-03-17T09:30:09;4.00;;;2.15;;
54993;SDS011;40891;47.242;8.648;2023-03-17T09:32:37;5.93;;;2.30;;
54993;SDS011;40891;47.242;8.648;2023-03-17T09:35:03;3.92;;;2.08;;
54993;SDS011;40891;47.242;8.648;2023-03-17T09:37:29;3.30;;;1.70;;
54993;SDS011;40891;47.242;8.648;2023-03-17T09:39:55;3.58;;;1.85;;
54993;SDS011;40891;47.242;8.648;2023-03-17T09:50:26;5.05;;;2.30;;
54993;SDS011;40891;47.242;8.648;2023-03-17T09:52:56;2.90;;;1.88;;
54993;SDS011;40891;47.242;8.648;2023-03-17T09:55:27;3.90;;;2.17;;
54993;SDS011;40891;47.242;8.648;2023-03-17T09:57:54;3.65;;;2.00;;
54993;SDS011;40891;47.242;8.648;2023-03-17T10:00:21;3.85;;;2.17;;
54993;SDS011;40891;47.242;8.648;2023-03-17T10:02:51;3.65;;;1.98;;
54993;SDS011;40891;47.242;8.648;2023-03-17T10:05:19;2.33;;;1.90;;
54993;SDS011;40891;47.242;8.648;2023-03-17T10:10:23;2.97;;;1.80;;
54993;SDS011;40891;47.242;8.648;2023-03-17T10:16:05;4.40;;;1.88;;
54993;SDS011;40891;47.242;8.648;2023-03-17T10:18:38;2.33;;;1.52;;
54993;SDS011;40891;47.242;8.648;2023-03-17T10:21:12;2.58;;;1.65;;
54993;SDS011;40891;47.242;8.648;2023-03-17T10:23:43;1.77;;;1.30;;
54993;SDS011;40891;47.242;8.648;2023-03-17T10:26:20;1.92;;;1.55;;
54993;SDS011;40891;47.242;8.648;2023-03-17T10:28:48;2.97;;;1.50;;
54993;SDS011;40891;47.242;8.648;2023-03-17T10:31:15;1.85;;;1.50;;
54993;SDS011;40891;47.242;8.648;2023-03-17T10:33:43;1.65;;;1.40;;
54993;SDS011;40891;47.242;8.648;2023-03-17T10:36:15;2.65;;;1.65;;
54993;SDS011;40891;47.242;8.648;2023-03-17T10:38:51;2.67;;;2.00;;
54993;SDS011;40891;47.242;8.648;2023-03-17T10:41:20;2.83;;;1.92;;
54993;SDS011;40891;47.242;8.648;2023-03-17T10:43:46;5.03;;;1.90;;
54993;SDS011;40891;47.242;8.648;2023-03-17T10:46:22;4.03;;;1.90;;
54993;SDS011;40891;47.242;8.648;2023-03-17T10:48:50;7.65;;;1.95;;
54993;SDS011;40891;47.242;8.648;2023-03-17T10:51:29;2.38;;;1.67;;
54993;SDS011;40891;47.242;8.648;2023-03-17T10:53:58;5.93;;;1.88;;
54993;SDS011;40891;47.242;8.648;2023-03-17T10:56:25;3.47;;;1.67;;
54993;SDS011;40891;47.242;8.648;2023-03-17T10:58:54;4.38;;;2.40;;
54993;SDS011;40891;47.242;8.648;2023-03-17T11:03:59;3.75;;;2.40;;
54993;SDS011;40891;47.242;8.648;2023-03-17T11:06:47;6.68;;;2.30;;
54993;SDS011;40891;47.242;8.648;2023-03-17T11:09:16;3.35;;;2.22;;
54993;SDS011;40891;47.242;8.648;2023-03-17T11:11:47;3.25;;;2.38;;
54993;SDS011;40891;47.242;8.648;2023-03-17T11:14:14;5.13;;;2.67;;
54993;SDS011;40891;47.242;8.648;2023-03-17T11:19:40;4.03;;;2.75;;
54993;SDS011;40891;47.242;8.648;2023-03-17T11:22:16;6.65;;;2.90;;
54993;SDS011;40891;47.242;8.648;2023-03-17T11:24:52;3.80;;;2.75;;
54993;SDS011;40891;47.242;8.648;2023-03-17T11:27:35;4.55;;;2.60;;
54993;SDS011;40891;47.242;8.648;2023-03-17T11:35:32;3.20;;;2.60;;
54993;SDS011;40891;47.242;8.648;2023-03-17T11:46:41;5.82;;;4.07;;
54993;SDS011;40891;47.242;8.648;2023-03-17T11:49:59;8.13;;;4.55;;
54993;SDS011;40891;47.242;8.648;2023-03-17T11:57:03;9.73;;;4.95;;
54993;SDS011;40891;47.242;8.648;2023-03-17T11:59:35;9.38;;;4.28;;
54993;SDS011;40891;47.242;8.648;2023-03-17T12:04:56;5.50;;;3.67;;
54993;SDS011;40891;47.242;8.648;2023-03-17T12:07:31;8.88;;;4.22;;
54993;SDS011;40891;47.242;8.648;2023-03-17T12:10:21;6.78;;;4.13;;
54993;SDS011;40891;47.242;8.648;2023-03-17T12:15:35;8.93;;;4.63;;
54993;SDS011;40891;47.242;8.648;2023-03-17T12:20:47;8.07;;;4.90;;
54993;SDS011;40891;47.242;8.648;2023-03-17T12:23:38;14.02;;;5.07;;
54993;SDS011;40891;47.242;8.648;2023-03-17T12:26:17;5.72;;;4.20;;
54993;SDS011;40891;47.242;8.648;2023-03-17T12:28:47;8.85;;;4.50;;
54993;SDS011;40891;47.242;8.648;2023-03-17T12:31:31;6.30;;;4.78;;
54993;SDS011;40891;47.242;8.648;2023-03-17T12:34:19;10.18;;;5.20;;
54993;SDS011;40891;47.242;8.648;2023-03-17T12:36:49;10.98;;;5.38;;
54993;SDS011;40891;47.242;8.648;2023-03-17T12:39:21;8.32;;;5.30;;
54993;SDS011;40891;47.242;8.648;2023-03-17T12:53:12;9.60;;;5.93;;
54993;SDS011;40891;47.242;8.648;2023-03-17T12:56:10;9.90;;;5.78;;
54993;SDS011;40891;47.242;8.648;2023-03-17T12:58:59;7.40;;;5.07;;
54993;SDS011;40891;47.242;8.648;2023-03-17T13:01:33;8.80;;;5.18;;
54993;SDS011;40891;47.242;8.648;2023-03-17T13:06:53;7.57;;;5.50;;
54993;SDS011;40891;47.242;8.648;2023-03-17T13:11:55;7.07;;;5.28;;
54993;SDS011;40891;47.242;8.648;2023-03-17T13:20:34;9.50;;;5.53;;
54993;SDS011;40891;47.242;8.648;2023-03-17T13:35:36;7.72;;;4.80;;
54993;SDS011;40891;47.242;8.648;2023-03-17T13:44:37;9.90;;;4.68;;
54993;SDS011;40891;47.242;8.648;2023-03-17T13:47:10;6.10;;;4.70;;
54993;SDS011;40891;47.242;8.648;2023-03-17T13:49:49;13.50;;;5.35;;
54993;SDS011;40891;47.242;8.648;2023-03-17T13:52:25;6.35;;;4.85;;
54993;SDS011;40891;47.242;8.648;2023-03-17T13:57:28;8.95;;;5.00;;
54993;SDS011;40891;47.242;8.648;2023-03-17T14:00:19;8.23;;;5.28;;
54993;SDS011;40891;47.242;8.648;2023-03-17T14:02:48;10.57;;;4.70;;
54993;SDS011;40891;47.242;8.648;2023-03-17T14:05:25;6.80;;;4.60;;
54993;SDS011;40891;47.242;8.648;2023-03-17T14:07:58;5.68;;;4.55;;
54993;SDS011;40891;47.242;8.648;2023-03-17T14:10:28;9.85;;;4.57;;
54993;SDS011;40891;47.242;8.648;2023-03-17T14:15:29;7.80;;;5.25;;
54993;SDS011;40891;47.242;8.648;2023-03-17T14:20:39;6.07;;;4.78;;
54993;SDS011;40891;47.242;8.648;2023-03-17T14:23:05;5.60;;;4.25;;
54993;SDS011;40891;47.242;8.648;2023-03-17T14:25:31;7.43;;;4.20;;
54993;SDS011;40891;47.242;8.648;2023-03-17T14:27:59;9.27;;;5.00;;
54993;SDS011;40891;47.242;8.648;2023-03-17T14:30:28;10.45;;;4.60;;
54993;SDS011;40891;47.242;8.648;2023-03-17T14:35:38;10.15;;;4.15;;
54993;SDS011;40891;47.242;8.648;2023-03-17T14:38:25;7.10;;;4.28;;
54993;SDS011;40891;47.242;8.648;2023-03-17T14:41:05;7.47;;;4.63;;
54993;SDS011;40891;47.242;8.648;2023-03-17T14:43:40;9.32;;;5.00;;
54993;SDS011;40891;47.242;8.648;2023-03-17T14:49:01;8.98;;;4.80;;
54993;SDS011;40891;47.242;8.648;2023-03-17T14:51:40;10.98;;;5.15;;
54993;SDS011;40891;47.242;8.648;2023-03-17T14:54:13;6.90;;;4.90;;
54993;SDS011;40891;47.242;8.648;2023-03-17T14:57:01;8.43;;;5.18;;
54993;SDS011;40891;47.242;8.648;2023-03-17T14:59:32;6.70;;;4.25;;
54993;SDS011;40891;47.242;8.648;2023-03-17T15:02:00;8.27;;;5.30;;
54993;SDS011;40891;47.242;8.648;2023-03-17T15:04:32;6.50;;;4.90;;
54993;SDS011;40891;47.242;8.648;2023-03-17T15:07:02;8.88;;;5.40;;
54993;SDS011;40891;47.242;8.648;2023-03-17T15:12:05;9.20;;;5.22;;
54993;SDS011;40891;47.242;8.648;2023-03-17T15:14:39;9.35;;;5.60;;
54993;SDS011;40891;47.242;8.648;2023-03-17T15:17:11;8.70;;;4.65;;
54993;SDS011;40891;47.242;8.648;2023-03-17T15:19:43;8.65;;;4.70;;
54993;SDS011;40891;47.242;8.648;2023-03-17T15:22:31;7.78;;;5.25;;
54993;SDS011;40891;47.242;8.648;2023-03-17T15:27:55;8.57;;;4.80;;
54993;SDS011;40891;47.242;8.648;2023-03-17T15:30:21;8.57;;;5.70;;
54993;SDS011;40891;47.242;8.648;2023-03-17T15:32:50;10.18;;;5.00;;
54993;SDS011;40891;47.242;8.648;2023-03-17T15:35:21;10.43;;;5.15;;
54993;SDS011;40891;47.242;8.648;2023-03-17T15:37:46;10.20;;;5.05;;
54993;SDS011;40891;47.242;8.648;2023-03-17T15:40:12;6.22;;;4.28;;
54993;SDS011;40891;47.242;8.648;2023-03-17T15:42:39;7.15;;;5.10;;
54993;SDS011;40891;47.242;8.648;2023-03-17T15:45:05;7.15;;;5.20;;
54993;SDS011;40891;47.242;8.648;2023-03-17T15:47:32;13.75;;;5.65;;
54993;SDS011;40891;47.242;8.648;2023-03-17T15:50:46;8.05;;;4.70;;
54993;SDS011;40891;47.242;8.648;2023-03-17T15:52:54;8.38;;;5.72;;
54993;SDS011;40891;47.242;8.648;2023-03-17T15:55:22;9.48;;;5.60;;
54993;SDS011;40891;47.242;8.648;2023-03-17T15:57:49;9.40;;;6.55;;
54993;SDS011;40891;47.242;8.648;2023-03-17T16:00:16;17.17;;;5.28;;
54993;SDS011;40891;47.242;8.648;2023-03-17T16:02:43;7.38;;;5.55;;
54993;SDS011;40891;47.242;8.648;2023-03-17T16:05:14;7.85;;;5.35;;
54993;SDS011;40891;47.242;8.648;2023-03-17T16:07:41;8.48;;;5.93;;
54993;SDS011;40891;47.242;8.648;2023-03-17T16:12:46;10.57;;;5.75;;
54993;SDS011;40891;47.242;8.648;2023-03-17T16:15:13;10.25;;;5.18;;
54993;SDS011;40891;47.242;8.648;2023-03-17T16:17:40;8.10;;;4.82;;
54993;SDS011;40891;47.242;8.648;2023-03-17T16:20:12;13.32;;;5.22;;
54993;SDS011;40891;47.242;8.648;2023-03-17T16:22:44;6.82;;;4.90;;
54993;SDS011;40891;47.242;8.648;2023-03-17T16:27:43;11.27;;;4.72;;
54993;SDS011;40891;47.242;8.648;2023-03-17T16:30:13;10.45;;;4.65;;
54993;SDS011;40891;47.242;8.648;2023-03-17T16:32:39;9.32;;;5.03;;
54993;SDS011;40891;47.242;8.648;2023-03-17T16:35:11;8.10;;;5.05;;
54993;SDS011;40891;47.242;8.648;2023-03-17T16:37:38;7.63;;;5.18;;
54993;SDS011;40891;47.242;8.648;2023-03-17T16:40:03;12.35;;;5.30;;
54993;SDS011;40891;47.242;8.648;2023-03-17T16:42:30;10.38;;;6.35;;
54993;SDS011;40891;47.242;8.648;2023-03-17T16:44:56;12.68;;;5.50;;
54993;SDS011;40891;47.242;8.648;2023-03-17T16:47:21;13.00;;;5.88;;